sensor_id;sensor_type;location;lat;lon;timestamp;P1;durP1;ratioP1;P2;durP2;ratioP2
25936;SDS011;13733;51.178;4.450;2023-09-07T00:00:43;10.07;;;6.07;;
25936;SDS011;13733;51.178;4.450;2023-09-07T00:03:08;9.38;;;6.50;;
25936;SDS011;13733;51.178;4.450;2023-09-07T00:05:34;7.18;;;5.97;;
25936;SDS011;13733;51.178;4.450;2023-09-07T00:08:00;8.50;;;5.95;;
25936;SDS011;13733;51.178;4.450;2023-09-07T00:10:26;11.32;;;6.00;;
25936;SDS011;13733;51.178;4.450;2023-09-07T00:12:52;9.07;;;6.40;;
25936;SDS011;13733;51.178;4.450;2023-09-07T00:15:17;10.00;;;5.72;;
25936;SDS011;13733;51.178;4.450;2023-09-07T00:17:46;10.00;;;5.88;;
25936;SDS011;13733;51.178;4.450;2023-09-07T00:20:12;10.43;;;6.30;;
25936;SDS011;13733;51.178;4.450;2023-09-07T00:22:41;8.95;;;5.97;;
25936;SDS011;13733;51.178;4.450;2023-09-07T00:25:07;7.80;;;5.53;;
25936;SDS011;13733;51.178;4.450;2023-09-07T00:27:34;7.45;;;5.90;;
25936;SDS011;13733;51.178;4.450;2023-09-07T00:29:59;8.85;;;6.18;;
25936;SDS011;13733;51.178;4.450;2023-09-07T00:32:26;12.68;;;6.10;;
25936;SDS011;13733;51.178;4.450;2023-09-07T00:34:53;9.88;;;6.10;;
25936;SDS011;13733;51.178;4.450;2023-09-07T00:37:18;8.05;;;6.60;;
25936;SDS011;13733;51.178;4.450;2023-09-07T00:39:44;13.90;;;6.15;;
25936;SDS011;13733;51.178;4.450;2023-09-07T00:42:10;10.25;;;6.40;;
25936;SDS011;13733;51.178;4.450;2023-09-07T00:44:36;8.23;;;6.40;;
25936;SDS011;13733;51.178;4.450;2023-09-07T00:47:02;11.23;;;6.25;;
25936;SDS011;13733;51.178;4.450;2023-09-07T00:49:28;8.02;;;5.88;;
25936;SDS011;13733;51.178;4.450;2023-09-07T00:51:54;8.50;;;6.40;;
25936;SDS011;13733;51.178;4.450;2023-09-07T00:54:20;8.38;;;6.22;;
25936;SDS011;13733;51.178;4.450;2023-09-07T00:56:47;11.55;;;6.20;;
25936;SDS011;13733;51.178;4.450;2023-09-07T00:59:14;12.05;;;6.90;;
25936;SDS011;13733;51.178;4.450;2023-09-07T01:01:39;11.80;;;6.45;;
25936;SDS011;13733;51.178;4.450;2023-09-07T01:04:07;9.18;;;6.50;;
25936;SDS011;13733;51.178;4.450;2023-09-07T01:06:35;7.85;;;6.07;;
25936;SDS011;13733;51.178;4.450;2023-09-07T01:09:06;8.75;;;6.43;;
25936;SDS011;13733;51.178;4.450;2023-09-07T01:11:38;12.35;;;6.53;;
25936;SDS011;13733;51.178;4.450;2023-09-07T01:14:04;10.18;;;6.70;;
25936;SDS011;13733;51.178;4.450;2023-09-07T01:16:30;8.77;;;6.72;;
25936;SDS011;13733;51.178;4.450;2023-09-07T01:19:01;7.40;;;6.43;;
25936;SDS011;13733;51.178;4.450;2023-09-07T01:21:32;12.50;;;7.00;;
25936;SDS011;13733;51.178;4.450;2023-09-07T01:24:01;10.10;;;6.40;;
25936;SDS011;13733;51.178;4.450;2023-09-07T01:26:33;8.88;;;6.13;;
25936;SDS011;13733;51.178;4.450;2023-09-07T01:29:00;9.32;;;6.63;;
25936;SDS011;13733;51.178;4.450;2023-09-07T01:31:26;11.20;;;6.35;;
25936;SDS011;13733;51.178;4.450;2023-09-07T01:33:52;10.82;;;6.30;;
25936;SDS011;13733;51.178;4.450;2023-09-07T01:36:18;10.18;;;6.65;;
25936;SDS011;13733;51.178;4.450;2023-09-07T01:38:44;8.80;;;7.15;;
25936;SDS011;13733;51.178;4.450;2023-09-07T01:41:10;12.70;;;6.78;;
25936;SDS011;13733;51.178;4.450;2023-09-07T01:43:37;8.10;;;6.40;;
25936;SDS011;13733;51.178;4.450;2023-09-07T01:46:03;7.88;;;6.25;;
25936;SDS011;13733;51.178;4.450;2023-09-07T01:48:28;7.78;;;6.47;;
25936;SDS011;13733;51.178;4.450;2023-09-07T01:50:54;11.45;;;6.25;;
25936;SDS011;13733;51.178;4.450;2023-09-07T01:53:20;9.20;;;6.68;;
25936;SDS011;13733;51.178;4.450;2023-09-07T01:55:47;8.07;;;6.22;;
25936;SDS011;13733;51.178;4.450;2023-09-07T01:58:14;10.82;;;7.20;;
25936;SDS011;13733;51.178;4.450;2023-09-07T02:00:39;9.60;;;6.53;;
25936;SDS011;13733;51.178;4.450;2023-09-07T02:03:06;12.50;;;6.88;;
25936;SDS011;13733;51.178;4.450;2023-09-07T02:05:32;13.23;;;7.07;;
25936;SDS011;13733;51.178;4.450;2023-09-07T02:07:58;11.43;;;6.97;;
25936;SDS011;13733;51.178;4.450;2023-09-07T02:10:24;10.55;;;7.20;;
25936;SDS011;13733;51.178;4.450;2023-09-07T02:12:50;7.80;;;6.93;;
25936;SDS011;13733;51.178;4.450;2023-09-07T02:15:17;9.07;;;7.18;;
25936;SDS011;13733;51.178;4.450;2023-09-07T02:17:42;9.60;;;7.03;;
25936;SDS011;13733;51.178;4.450;2023-09-07T02:20:11;8.00;;;7.20;;
25936;SDS011;13733;51.178;4.450;2023-09-07T02:22:39;11.52;;;7.57;;
25936;SDS011;13733;51.178;4.450;2023-09-07T02:25:05;8.75;;;7.00;;
25936;SDS011;13733;51.178;4.450;2023-09-07T02:27:32;9.65;;;7.25;;
25936;SDS011;13733;51.178;4.450;2023-09-07T02:30:00;14.52;;;7.82;;
25936;SDS011;13733;51.178;4.450;2023-09-07T02:32:27;9.68;;;6.80;;
25936;SDS011;13733;51.178;4.450;2023-09-07T02:34:53;13.45;;;7.53;;
25936;SDS011;13733;51.178;4.450;2023-09-07T02:37:19;10.70;;;7.55;;
25936;SDS011;13733;51.178;4.450;2023-09-07T02:39:45;9.88;;;7.60;;
25936;SDS011;13733;51.178;4.450;2023-09-07T02:42:11;10.77;;;7.95;;
25936;SDS011;13733;51.178;4.450;2023-09-07T02:44:37;8.60;;;7.63;;
25936;SDS011;13733;51.178;4.450;2023-09-07T02:47:03;9.63;;;7.68;;
25936;SDS011;13733;51.178;4.450;2023-09-07T02:49:29;11.10;;;8.27;;
25936;SDS011;13733;51.178;4.450;2023-09-07T02:51:55;12.75;;;8.23;;
25936;SDS011;13733;51.178;4.450;2023-09-07T02:54:22;14.15;;;9.07;;
25936;SDS011;13733;51.178;4.450;2023-09-07T02:56:49;10.77;;;8.73;;
25936;SDS011;13733;51.178;4.450;2023-09-07T02:59:15;11.43;;;8.60;;
25936;SDS011;13733;51.178;4.450;2023-09-07T03:01:40;13.00;;;8.93;;
25936;SDS011;13733;51.178;4.450;2023-09-07T03:04:06;10.15;;;8.50;;
25936;SDS011;13733;51.178;4.450;2023-09-07T03:06:33;9.70;;;8.70;;
25936;SDS011;13733;51.178;4.450;2023-09-07T03:08:59;10.82;;;9.35;;
25936;SDS011;13733;51.178;4.450;2023-09-07T03:11:25;11.65;;;9.18;;
25936;SDS011;13733;51.178;4.450;2023-09-07T03:13:51;15.43;;;9.48;;
25936;SDS011;13733;51.178;4.450;2023-09-07T03:16:17;12.40;;;9.43;;
25936;SDS011;13733;51.178;4.450;2023-09-07T03:18:43;12.65;;;9.15;;
25936;SDS011;13733;51.178;4.450;2023-09-07T03:21:10;17.67;;;10.13;;
25936;SDS011;13733;51.178;4.450;2023-09-07T03:23:37;15.25;;;9.75;;
25936;SDS011;13733;51.178;4.450;2023-09-07T03:26:04;13.65;;;9.55;;
25936;SDS011;13733;51.178;4.450;2023-09-07T03:28:31;12.40;;;9.18;;
25936;SDS011;13733;51.178;4.450;2023-09-07T03:30:57;14.20;;;9.43;;
25936;SDS011;13733;51.178;4.450;2023-09-07T03:33:23;17.02;;;9.60;;
25936;SDS011;13733;51.178;4.450;2023-09-07T03:35:50;14.57;;;9.25;;
25936;SDS011;13733;51.178;4.450;2023-09-07T03:38:17;14.88;;;9.90;;
25936;SDS011;13733;51.178;4.450;2023-09-07T03:40:43;12.32;;;9.48;;
25936;SDS011;13733;51.178;4.450;2023-09-07T03:43:09;13.52;;;9.68;;
25936;SDS011;13733;51.178;4.450;2023-09-07T03:45:35;11.63;;;9.25;;
25936;SDS011;13733;51.178;4.450;2023-09-07T03:48:01;15.10;;;10.55;;
25936;SDS011;13733;51.178;4.450;2023-09-07T03:50:28;12.90;;;10.02;;
25936;SDS011;13733;51.178;4.450;2023-09-07T03:52:54;12.27;;;9.95;;
25936;SDS011;13733;51.178;4.450;2023-09-07T03:55:21;16.05;;;10.27;;
25936;SDS011;13733;51.178;4.450;2023-09-07T03:57:46;14.18;;;10.10;;
25936;SDS011;13733;51.178;4.450;2023-09-07T04:00:12;15.52;;;9.93;;
25936;SDS011;13733;51.178;4.450;2023-09-07T04:02:42;12.37;;;10.30;;
25936;SDS011;13733;51.178;4.450;2023-09-07T04:05:08;14.23;;;10.63;;
25936;SDS011;13733;51.178;4.450;2023-09-07T04:07:36;16.33;;;11.30;;
25936;SDS011;13733;51.178;4.450;2023-09-07T04:10:03;16.45;;;11.90;;
25936;SDS011;13733;51.178;4.450;2023-09-07T04:12:29;15.52;;;10.90;;
25936;SDS011;13733;51.178;4.450;2023-09-07T04:14:56;18.15;;;11.40;;
25936;SDS011;13733;51.178;4.450;2023-09-07T04:17:22;17.17;;;11.88;;
25936;SDS011;13733;51.178;4.450;2023-09-07T04:19:48;19.33;;;11.88;;
25936;SDS011;13733;51.178;4.450;2023-09-07T04:22:14;16.30;;;12.00;;
25936;SDS011;13733;51.178;4.450;2023-09-07T04:24:40;16.80;;;11.90;;
25936;SDS011;13733;51.178;4.450;2023-09-07T04:27:07;14.20;;;11.63;;
25936;SDS011;13733;51.178;4.450;2023-09-07T04:29:33;16.02;;;11.80;;
25936;SDS011;13733;51.178;4.450;2023-09-07T04:31:59;17.05;;;11.57;;
25936;SDS011;13733;51.178;4.450;2023-09-07T04:34:25;17.42;;;11.27;;
25936;SDS011;13733;51.178;4.450;2023-09-07T04:36:53;16.13;;;11.45;;
25936;SDS011;13733;51.178;4.450;2023-09-07T04:39:19;12.20;;;10.95;;
25936;SDS011;13733;51.178;4.450;2023-09-07T04:41:46;15.52;;;12.30;;
25936;SDS011;13733;51.178;4.450;2023-09-07T04:44:12;16.05;;;12.25;;
25936;SDS011;13733;51.178;4.450;2023-09-07T04:46:37;15.68;;;13.13;;
25936;SDS011;13733;51.178;4.450;2023-09-07T04:49:04;12.63;;;11.20;;
25936;SDS011;13733;51.178;4.450;2023-09-07T04:51:29;14.30;;;11.70;;
25936;SDS011;13733;51.178;4.450;2023-09-07T04:53:55;20.08;;;11.90;;
25936;SDS011;13733;51.178;4.450;2023-09-07T04:56:21;19.50;;;12.85;;
25936;SDS011;13733;51.178;4.450;2023-09-07T04:58:47;20.30;;;14.15;;
25936;SDS011;13733;51.178;4.450;2023-09-07T05:01:13;18.98;;;13.07;;
25936;SDS011;13733;51.178;4.450;2023-09-07T05:03:40;19.48;;;13.32;;
25936;SDS011;13733;51.178;4.450;2023-09-07T05:06:08;19.08;;;12.50;;
25936;SDS011;13733;51.178;4.450;2023-09-07T05:08:34;24.10;;;14.63;;
25936;SDS011;13733;51.178;4.450;2023-09-07T05:11:01;31.65;;;15.25;;
25936;SDS011;13733;51.178;4.450;2023-09-07T05:13:28;21.88;;;15.52;;
25936;SDS011;13733;51.178;4.450;2023-09-07T05:15:55;21.02;;;14.43;;
25936;SDS011;13733;51.178;4.450;2023-09-07T05:18:23;21.38;;;14.02;;
25936;SDS011;13733;51.178;4.450;2023-09-07T05:20:49;27.27;;;14.32;;
25936;SDS011;13733;51.178;4.450;2023-09-07T05:23:17;20.40;;;12.70;;
25936;SDS011;13733;51.178;4.450;2023-09-07T05:25:45;18.58;;;13.25;;
25936;SDS011;13733;51.178;4.450;2023-09-07T05:28:15;22.48;;;13.05;;
25936;SDS011;13733;51.178;4.450;2023-09-07T05:30:42;26.33;;;13.60;;
25936;SDS011;13733;51.178;4.450;2023-09-07T05:33:12;22.35;;;13.60;;
25936;SDS011;13733;51.178;4.450;2023-09-07T05:35:39;21.77;;;14.75;;
25936;SDS011;13733;51.178;4.450;2023-09-07T05:38:05;22.92;;;13.10;;
25936;SDS011;13733;51.178;4.450;2023-09-07T05:40:38;22.80;;;14.25;;
25936;SDS011;13733;51.178;4.450;2023-09-07T05:43:05;26.17;;;13.27;;
25936;SDS011;13733;51.178;4.450;2023-09-07T05:45:34;18.55;;;12.98;;
25936;SDS011;13733;51.178;4.450;2023-09-07T05:48:02;18.65;;;13.18;;
25936;SDS011;13733;51.178;4.450;2023-09-07T05:50:32;17.25;;;12.45;;
25936;SDS011;13733;51.178;4.450;2023-09-07T05:53:00;18.90;;;12.48;;
25936;SDS011;13733;51.178;4.450;2023-09-07T05:55:25;16.42;;;11.77;;
25936;SDS011;13733;51.178;4.450;2023-09-07T05:57:54;22.45;;;11.98;;
25936;SDS011;13733;51.178;4.450;2023-09-07T06:00:21;19.70;;;14.67;;
25936;SDS011;13733;51.178;4.450;2023-09-07T06:02:49;14.45;;;11.15;;
25936;SDS011;13733;51.178;4.450;2023-09-07T06:05:15;16.08;;;11.93;;
25936;SDS011;13733;51.178;4.450;2023-09-07T06:07:41;15.70;;;11.68;;
25936;SDS011;13733;51.178;4.450;2023-09-07T06:10:08;15.82;;;11.75;;
25936;SDS011;13733;51.178;4.450;2023-09-07T06:12:34;17.73;;;12.73;;
25936;SDS011;13733;51.178;4.450;2023-09-07T06:15:03;14.02;;;12.18;;
25936;SDS011;13733;51.178;4.450;2023-09-07T06:17:29;15.82;;;11.57;;
25936;SDS011;13733;51.178;4.450;2023-09-07T06:19:55;20.08;;;12.45;;
25936;SDS011;13733;51.178;4.450;2023-09-07T06:22:22;15.73;;;11.77;;
25936;SDS011;13733;51.178;4.450;2023-09-07T06:24:50;15.57;;;11.63;;
25936;SDS011;13733;51.178;4.450;2023-09-07T06:27:17;22.80;;;12.35;;
25936;SDS011;13733;51.178;4.450;2023-09-07T06:29:42;14.27;;;11.15;;
25936;SDS011;13733;51.178;4.450;2023-09-07T06:32:08;16.85;;;11.93;;
25936;SDS011;13733;51.178;4.450;2023-09-07T06:34:34;15.00;;;11.70;;
25936;SDS011;13733;51.178;4.450;2023-09-07T06:37:01;17.92;;;11.55;;
25936;SDS011;13733;51.178;4.450;2023-09-07T06:39:27;17.65;;;11.80;;
25936;SDS011;13733;51.178;4.450;2023-09-07T06:41:52;16.70;;;11.65;;
25936;SDS011;13733;51.178;4.450;2023-09-07T06:44:22;13.73;;;10.27;;
25936;SDS011;13733;51.178;4.450;2023-09-07T06:46:48;17.83;;;12.27;;
25936;SDS011;13733;51.178;4.450;2023-09-07T06:49:16;19.20;;;12.15;;
25936;SDS011;13733;51.178;4.450;2023-09-07T06:51:42;14.68;;;11.32;;
25936;SDS011;13733;51.178;4.450;2023-09-07T06:54:08;18.65;;;12.25;;
25936;SDS011;13733;51.178;4.450;2023-09-07T06:56:34;18.67;;;11.50;;
25936;SDS011;13733;51.178;4.450;2023-09-07T06:59:00;13.50;;;10.77;;
25936;SDS011;13733;51.178;4.450;2023-09-07T07:01:26;16.02;;;11.52;;
25936;SDS011;13733;51.178;4.450;2023-09-07T07:03:52;19.80;;;11.35;;
25936;SDS011;13733;51.178;4.450;2023-09-07T07:06:19;14.30;;;11.25;;
25936;SDS011;13733;51.178;4.450;2023-09-07T07:08:45;14.20;;;9.68;;
25936;SDS011;13733;51.178;4.450;2023-09-07T07:11:11;14.85;;;10.25;;
25936;SDS011;13733;51.178;4.450;2023-09-07T07:13:37;17.08;;;11.73;;
25936;SDS011;13733;51.178;4.450;2023-09-07T07:16:04;12.48;;;9.45;;
25936;SDS011;13733;51.178;4.450;2023-09-07T07:18:31;12.57;;;10.65;;
25936;SDS011;13733;51.178;4.450;2023-09-07T07:20:57;16.25;;;11.80;;
25936;SDS011;13733;51.178;4.450;2023-09-07T07:23:23;16.00;;;11.55;;
25936;SDS011;13733;51.178;4.450;2023-09-07T07:25:49;14.38;;;10.95;;
25936;SDS011;13733;51.178;4.450;2023-09-07T07:28:16;17.17;;;11.10;;
25936;SDS011;13733;51.178;4.450;2023-09-07T07:30:42;13.75;;;10.50;;
25936;SDS011;13733;51.178;4.450;2023-09-07T07:33:08;12.55;;;9.77;;
25936;SDS011;13733;51.178;4.450;2023-09-07T07:35:36;16.10;;;10.10;;
25936;SDS011;13733;51.178;4.450;2023-09-07T07:38:03;16.08;;;9.50;;
25936;SDS011;13733;51.178;4.450;2023-09-07T07:40:32;13.32;;;9.35;;
25936;SDS011;13733;51.178;4.450;2023-09-07T07:42:58;12.68;;;9.13;;
25936;SDS011;13733;51.178;4.450;2023-09-07T07:45:24;13.73;;;9.32;;
25936;SDS011;13733;51.178;4.450;2023-09-07T07:47:51;10.65;;;8.23;;
25936;SDS011;13733;51.178;4.450;2023-09-07T07:50:18;12.32;;;8.93;;
25936;SDS011;13733;51.178;4.450;2023-09-07T07:52:45;12.07;;;8.50;;
25936;SDS011;13733;51.178;4.450;2023-09-07T07:55:11;11.35;;;8.98;;
25936;SDS011;13733;51.178;4.450;2023-09-07T07:57:38;11.98;;;7.90;;
25936;SDS011;13733;51.178;4.450;2023-09-07T08:00:05;9.73;;;8.10;;
25936;SDS011;13733;51.178;4.450;2023-09-07T08:02:39;19.63;;;8.70;;
25936;SDS011;13733;51.178;4.450;2023-09-07T08:05:07;11.40;;;8.55;;
25936;SDS011;13733;51.178;4.450;2023-09-07T08:07:34;10.25;;;8.05;;
25936;SDS011;13733;51.178;4.450;2023-09-07T08:10:00;15.63;;;8.43;;
25936;SDS011;13733;51.178;4.450;2023-09-07T08:12:26;16.75;;;7.97;;
25936;SDS011;13733;51.178;4.450;2023-09-07T08:14:53;10.52;;;7.60;;
25936;SDS011;13733;51.178;4.450;2023-09-07T08:17:21;13.57;;;7.40;;
25936;SDS011;13733;51.178;4.450;2023-09-07T08:19:48;12.18;;;7.50;;
25936;SDS011;13733;51.178;4.450;2023-09-07T08:22:18;16.70;;;7.38;;
25936;SDS011;13733;51.178;4.450;2023-09-07T08:24:45;10.30;;;6.72;;
25936;SDS011;13733;51.178;4.450;2023-09-07T08:27:12;15.95;;;7.38;;
25936;SDS011;13733;51.178;4.450;2023-09-07T08:29:44;8.80;;;6.68;;
25936;SDS011;13733;51.178;4.450;2023-09-07T08:32:17;10.63;;;6.90;;
25936;SDS011;13733;51.178;4.450;2023-09-07T08:34:42;10.70;;;6.90;;
25936;SDS011;13733;51.178;4.450;2023-09-07T08:37:08;10.27;;;6.65;;
25936;SDS011;13733;51.178;4.450;2023-09-07T08:39:34;11.25;;;6.80;;
25936;SDS011;13733;51.178;4.450;2023-09-07T08:42:01;11.35;;;6.50;;
25936;SDS011;13733;51.178;4.450;2023-09-07T08:44:28;12.05;;;7.03;;
25936;SDS011;13733;51.178;4.450;2023-09-07T08:46:55;8.05;;;6.82;;
25936;SDS011;13733;51.178;4.450;2023-09-07T08:49:22;11.30;;;6.35;;
25936;SDS011;13733;51.178;4.450;2023-09-07T08:51:49;13.45;;;6.00;;
25936;SDS011;13733;51.178;4.450;2023-09-07T08:54:17;7.55;;;5.90;;
25936;SDS011;13733;51.178;4.450;2023-09-07T08:56:45;11.98;;;6.55;;
25936;SDS011;13733;51.178;4.450;2023-09-07T08:59:12;8.60;;;5.85;;
25936;SDS011;13733;51.178;4.450;2023-09-07T09:01:37;8.50;;;5.60;;
25936;SDS011;13733;51.178;4.450;2023-09-07T09:04:04;6.85;;;5.43;;
25936;SDS011;13733;51.178;4.450;2023-09-07T09:06:30;14.73;;;5.30;;
25936;SDS011;13733;51.178;4.450;2023-09-07T09:08:56;11.45;;;5.53;;
25936;SDS011;13733;51.178;4.450;2023-09-07T09:11:23;9.20;;;5.05;;
25936;SDS011;13733;51.178;4.450;2023-09-07T09:13:51;6.90;;;5.03;;
25936;SDS011;13733;51.178;4.450;2023-09-07T09:16:18;7.75;;;4.97;;
25936;SDS011;13733;51.178;4.450;2023-09-07T09:18:48;11.80;;;5.18;;
25936;SDS011;13733;51.178;4.450;2023-09-07T09:21:14;19.38;;;8.75;;
25936;SDS011;13733;51.178;4.450;2023-09-07T09:23:41;9.13;;;5.40;;
25936;SDS011;13733;51.178;4.450;2023-09-07T09:26:07;10.77;;;5.05;;
25936;SDS011;13733;51.178;4.450;2023-09-07T09:28:33;7.68;;;4.82;;
25936;SDS011;13733;51.178;4.450;2023-09-07T09:31:02;7.93;;;4.70;;
25936;SDS011;13733;51.178;4.450;2023-09-07T09:33:32;81.28;;;11.02;;
25936;SDS011;13733;51.178;4.450;2023-09-07T09:36:00;43.33;;;7.80;;
25936;SDS011;13733;51.178;4.450;2023-09-07T09:38:27;10.15;;;4.45;;
25936;SDS011;13733;51.178;4.450;2023-09-07T09:40:54;8.70;;;4.75;;
25936;SDS011;13733;51.178;4.450;2023-09-07T09:43:20;8.20;;;4.22;;
25936;SDS011;13733;51.178;4.450;2023-09-07T09:45:47;8.38;;;4.13;;
25936;SDS011;13733;51.178;4.450;2023-09-07T09:48:16;14.00;;;4.53;;
25936;SDS011;13733;51.178;4.450;2023-09-07T09:50:43;5.22;;;4.00;;
25936;SDS011;13733;51.178;4.450;2023-09-07T09:53:11;7.97;;;4.03;;
25936;SDS011;13733;51.178;4.450;2023-09-07T09:58:06;6.22;;;3.75;;
25936;SDS011;13733;51.178;4.450;2023-09-07T10:00:32;4.40;;;3.35;;
25936;SDS011;13733;51.178;4.450;2023-09-07T10:03:10;8.40;;;3.60;;
25936;SDS011;13733;51.178;4.450;2023-09-07T10:05:49;5.78;;;3.70;;
25936;SDS011;13733;51.178;4.450;2023-09-07T10:08:16;6.80;;;3.63;;
25936;SDS011;13733;51.178;4.450;2023-09-07T10:10:43;8.48;;;4.10;;
25936;SDS011;13733;51.178;4.450;2023-09-07T10:13:14;7.57;;;3.70;;
25936;SDS011;13733;51.178;4.450;2023-09-07T10:15:41;6.50;;;3.80;;
25936;SDS011;13733;51.178;4.450;2023-09-07T10:18:10;7.53;;;3.70;;
25936;SDS011;13733;51.178;4.450;2023-09-07T10:23:14;9.45;;;3.55;;
25936;SDS011;13733;51.178;4.450;2023-09-07T10:25:40;4.90;;;3.42;;
25936;SDS011;13733;51.178;4.450;2023-09-07T10:28:16;7.10;;;3.50;;
25936;SDS011;13733;51.178;4.450;2023-09-07T10:30:43;7.50;;;3.72;;
25936;SDS011;13733;51.178;4.450;2023-09-07T10:33:22;5.25;;;3.33;;
25936;SDS011;13733;51.178;4.450;2023-09-07T10:35:48;8.15;;;3.50;;
25936;SDS011;13733;51.178;4.450;2023-09-07T10:38:14;5.30;;;3.30;;
25936;SDS011;13733;51.178;4.450;2023-09-07T10:40:41;7.90;;;3.47;;
25936;SDS011;13733;51.178;4.450;2023-09-07T10:43:10;7.53;;;3.33;;
25936;SDS011;13733;51.178;4.450;2023-09-07T10:45:36;5.22;;;3.45;;
25936;SDS011;13733;51.178;4.450;2023-09-07T10:48:02;7.95;;;3.80;;
25936;SDS011;13733;51.178;4.450;2023-09-07T10:50:41;8.95;;;3.50;;
25936;SDS011;13733;51.178;4.450;2023-09-07T10:53:11;5.43;;;3.53;;
25936;SDS011;13733;51.178;4.450;2023-09-07T10:55:39;8.10;;;3.40;;
25936;SDS011;13733;51.178;4.450;2023-09-07T10:58:08;7.83;;;3.13;;
25936;SDS011;13733;51.178;4.450;2023-09-07T11:00:34;4.68;;;3.10;;
25936;SDS011;13733;51.178;4.450;2023-09-07T11:03:06;6.30;;;3.53;;
25936;SDS011;13733;51.178;4.450;2023-09-07T11:05:36;5.32;;;3.72;;
25936;SDS011;13733;51.178;4.450;2023-09-07T11:08:04;11.32;;;3.95;;
25936;SDS011;13733;51.178;4.450;2023-09-07T11:10:34;7.18;;;3.83;;
25936;SDS011;13733;51.178;4.450;2023-09-07T11:13:03;5.80;;;3.70;;
25936;SDS011;13733;51.178;4.450;2023-09-07T11:15:30;6.20;;;3.70;;
25936;SDS011;13733;51.178;4.450;2023-09-07T11:17:58;6.15;;;3.10;;
25936;SDS011;13733;51.178;4.450;2023-09-07T11:20:35;5.13;;;3.55;;
25936;SDS011;13733;51.178;4.450;2023-09-07T11:23:02;3.83;;;3.03;;
25936;SDS011;13733;51.178;4.450;2023-09-07T11:25:37;7.93;;;3.40;;
25936;SDS011;13733;51.178;4.450;2023-09-07T11:28:06;5.45;;;3.33;;
25936;SDS011;13733;51.178;4.450;2023-09-07T11:30:35;4.75;;;3.10;;
25936;SDS011;13733;51.178;4.450;2023-09-07T11:33:01;4.97;;;3.30;;
25936;SDS011;13733;51.178;4.450;2023-09-07T11:35:27;10.73;;;3.28;;
25936;SDS011;13733;51.178;4.450;2023-09-07T11:37:53;8.45;;;3.78;;
25936;SDS011;13733;51.178;4.450;2023-09-07T11:40:19;9.00;;;3.50;;
25936;SDS011;13733;51.178;4.450;2023-09-07T11:42:45;10.30;;;3.53;;
25936;SDS011;13733;51.178;4.450;2023-09-07T11:45:10;7.25;;;3.20;;
25936;SDS011;13733;51.178;4.450;2023-09-07T11:47:38;5.18;;;3.40;;
25936;SDS011;13733;51.178;4.450;2023-09-07T11:50:05;6.45;;;3.65;;
25936;SDS011;13733;51.178;4.450;2023-09-07T11:52:31;3.33;;;2.80;;
25936;SDS011;13733;51.178;4.450;2023-09-07T11:54:57;6.38;;;2.92;;
25936;SDS011;13733;51.178;4.450;2023-09-07T11:57:23;7.88;;;3.40;;
25936;SDS011;13733;51.178;4.450;2023-09-07T11:59:49;8.88;;;3.47;;
25936;SDS011;13733;51.178;4.450;2023-09-07T12:02:15;5.78;;;3.30;;
25936;SDS011;13733;51.178;4.450;2023-09-07T12:04:42;6.53;;;3.47;;
25936;SDS011;13733;51.178;4.450;2023-09-07T12:07:09;7.03;;;3.45;;
25936;SDS011;13733;51.178;4.450;2023-09-07T12:09:36;7.03;;;3.30;;
25936;SDS011;13733;51.178;4.450;2023-09-07T12:12:03;9.52;;;3.22;;
25936;SDS011;13733;51.178;4.450;2023-09-07T12:14:29;6.93;;;3.30;;
25936;SDS011;13733;51.178;4.450;2023-09-07T12:16:56;5.88;;;3.10;;
25936;SDS011;13733;51.178;4.450;2023-09-07T12:19:22;8.35;;;3.60;;
25936;SDS011;13733;51.178;4.450;2023-09-07T12:21:48;5.43;;;2.97;;
25936;SDS011;13733;51.178;4.450;2023-09-07T12:24:13;6.55;;;3.38;;
25936;SDS011;13733;51.178;4.450;2023-09-07T12:26:39;5.30;;;3.08;;
25936;SDS011;13733;51.178;4.450;2023-09-07T12:29:05;5.78;;;2.90;;
25936;SDS011;13733;51.178;4.450;2023-09-07T12:31:32;6.10;;;2.90;;
25936;SDS011;13733;51.178;4.450;2023-09-07T12:33:58;5.53;;;3.28;;
25936;SDS011;13733;51.178;4.450;2023-09-07T12:36:24;5.57;;;3.25;;
25936;SDS011;13733;51.178;4.450;2023-09-07T12:41:19;5.18;;;3.00;;
25936;SDS011;13733;51.178;4.450;2023-09-07T12:43:46;3.20;;;2.92;;
25936;SDS011;13733;51.178;4.450;2023-09-07T12:46:12;5.70;;;3.40;;
25936;SDS011;13733;51.178;4.450;2023-09-07T12:48:38;5.38;;;3.28;;
25936;SDS011;13733;51.178;4.450;2023-09-07T12:51:04;4.65;;;2.95;;
25936;SDS011;13733;51.178;4.450;2023-09-07T12:53:30;5.45;;;3.10;;
25936;SDS011;13733;51.178;4.450;2023-09-07T12:55:55;6.65;;;3.28;;
25936;SDS011;13733;51.178;4.450;2023-09-07T12:58:21;6.13;;;3.13;;
25936;SDS011;13733;51.178;4.450;2023-09-07T13:00:47;5.43;;;3.00;;
25936;SDS011;13733;51.178;4.450;2023-09-07T13:03:14;5.30;;;3.05;;
25936;SDS011;13733;51.178;4.450;2023-09-07T13:05:40;8.13;;;3.17;;
25936;SDS011;13733;51.178;4.450;2023-09-07T13:08:05;5.43;;;3.03;;
25936;SDS011;13733;51.178;4.450;2023-09-07T13:10:32;4.95;;;2.80;;
25936;SDS011;13733;51.178;4.450;2023-09-07T13:12:58;4.75;;;3.03;;
25936;SDS011;13733;51.178;4.450;2023-09-07T13:15:23;10.52;;;2.80;;
25936;SDS011;13733;51.178;4.450;2023-09-07T13:17:49;4.10;;;2.72;;
25936;SDS011;13733;51.178;4.450;2023-09-07T13:20:15;3.38;;;2.95;;
25936;SDS011;13733;51.178;4.450;2023-09-07T13:22:41;8.88;;;2.88;;
25936;SDS011;13733;51.178;4.450;2023-09-07T13:25:07;6.38;;;3.35;;
25936;SDS011;13733;51.178;4.450;2023-09-07T13:27:33;12.75;;;3.50;;
25936;SDS011;13733;51.178;4.450;2023-09-07T13:29:59;11.02;;;3.63;;
25936;SDS011;13733;51.178;4.450;2023-09-07T13:32:26;5.53;;;3.17;;
25936;SDS011;13733;51.178;4.450;2023-09-07T13:34:52;7.82;;;3.33;;
25936;SDS011;13733;51.178;4.450;2023-09-07T13:37:18;5.53;;;3.03;;
25936;SDS011;13733;51.178;4.450;2023-09-07T13:39:44;4.30;;;3.15;;
25936;SDS011;13733;51.178;4.450;2023-09-07T13:42:10;6.07;;;3.33;;
25936;SDS011;13733;51.178;4.450;2023-09-07T13:44:36;4.97;;;3.10;;
25936;SDS011;13733;51.178;4.450;2023-09-07T13:47:01;8.30;;;3.55;;
25936;SDS011;13733;51.178;4.450;2023-09-07T13:49:27;7.25;;;3.20;;
25936;SDS011;13733;51.178;4.450;2023-09-07T13:51:53;8.80;;;3.45;;
25936;SDS011;13733;51.178;4.450;2023-09-07T13:54:18;6.80;;;2.97;;
25936;SDS011;13733;51.178;4.450;2023-09-07T13:56:44;3.58;;;3.08;;
25936;SDS011;13733;51.178;4.450;2023-09-07T13:59:11;10.55;;;3.40;;
25936;SDS011;13733;51.178;4.450;2023-09-07T14:01:37;6.50;;;2.97;;
25936;SDS011;13733;51.178;4.450;2023-09-07T14:04:03;8.45;;;3.33;;
25936;SDS011;13733;51.178;4.450;2023-09-07T14:06:30;11.57;;;3.65;;
25936;SDS011;13733;51.178;4.450;2023-09-07T14:08:55;8.93;;;3.42;;
25936;SDS011;13733;51.178;4.450;2023-09-07T14:11:21;6.25;;;3.08;;
25936;SDS011;13733;51.178;4.450;2023-09-07T14:13:50;16.65;;;4.20;;
25936;SDS011;13733;51.178;4.450;2023-09-07T14:16:19;8.80;;;3.25;;
25936;SDS011;13733;51.178;4.450;2023-09-07T14:18:46;8.15;;;3.70;;
25936;SDS011;13733;51.178;4.450;2023-09-07T14:21:15;5.22;;;3.15;;
25936;SDS011;13733;51.178;4.450;2023-09-07T14:23:42;3.97;;;3.58;;
25936;SDS011;13733;51.178;4.450;2023-09-07T14:26:08;9.27;;;3.45;;
25936;SDS011;13733;51.178;4.450;2023-09-07T14:28:34;9.00;;;3.83;;
25936;SDS011;13733;51.178;4.450;2023-09-07T14:31:00;12.63;;;4.28;;
25936;SDS011;13733;51.178;4.450;2023-09-07T14:33:31;8.07;;;4.20;;
25936;SDS011;13733;51.178;4.450;2023-09-07T14:35:58;11.48;;;3.95;;
25936;SDS011;13733;51.178;4.450;2023-09-07T14:38:24;7.65;;;3.92;;
25936;SDS011;13733;51.178;4.450;2023-09-07T14:40:52;12.52;;;3.83;;
25936;SDS011;13733;51.178;4.450;2023-09-07T14:43:21;8.65;;;3.85;;